Time;durP1;ratioP1;P1;durP2;ratioP2;P2;SDS_P1;SDS_P2;PMS_P1;PMS_P2;Temp;Humidity;BMP_temperature;BMP_pressure;BME280_temperature;BME280_humidity;BME280_pressure;Samples;Min_cycle;Max_cycle;Signal;HPM_P1;HPM_P2
2022/05/27 00:01:38;;;;;;;;;;;14.40;99.90;;;;;;5083395;28;20086;-65
2022/05/27 00:04:18;;;;;;;13.32;3.67;;;14.40;99.90;;;;;;5088115;28;19930;-65
2022/05/27 00:06:59;;;;;;;11.52;3.10;;;14.40;99.90;;;;;;5089220;28;20040;-64
2022/05/27 00:09:40;;;;;;;9.80;3.28;;;14.40;99.90;;;;;;5095954;28;20508;-65
2022/05/27 00:12:20;;;;;;;8.18;4.18;;;14.20;99.90;;;;;;5086541;28;20033;-65
2022/05/27 00:14:46;;;;;;;;;;;14.10;99.90;;;;;;5082687;28;20522;-65
2022/05/27 00:17:11;;;;;;;10.50;4.53;;;14.00;99.90;;;;;;5084175;28;19923;-64
2022/05/27 00:19:37;;;;;;;8.43;3.30;;;13.80;99.90;;;;;;5068926;28;20492;-66
2022/05/27 00:22:03;;;;;;;;;;;13.80;99.90;;;;;;5074956;28;20059;-65
2022/05/27 00:24:28;;;;;;;12.27;4.30;;;13.70;99.90;;;;;;5068726;28;19916;-66
2022/05/27 00:26:54;;;;;;;;;;;13.70;99.90;;;;;;5074217;28;20547;-65
2022/05/27 00:29:19;;;;;;;9.63;4.25;;;13.60;99.90;;;;;;5069872;28;20299;-65
2022/05/27 00:31:45;;;;;;;;;;;13.60;99.90;;;;;;5078731;28;20029;-65
2022/05/27 00:34:10;;;;;;;16.80;4.40;;;13.60;99.90;;;;;;5089029;28;20000;-64
2022/05/27 00:36:36;;;;;;;;;;;13.60;99.90;;;;;;5084017;28;20510;-65
2022/05/27 00:39:03;;;;;;;17.40;4.47;;;13.50;99.90;;;;;;5088654;28;20350;-66
2022/05/27 00:41:29;;;;;;;10.18;4.43;;;13.50;99.90;;;;;;5084255;28;20051;-64
2022/05/27 00:43:55;;;;;;;15.45;4.85;;;13.50;99.90;;;;;;5086185;28;20039;-65
2022/05/27 00:46:23;;;;;;;;;;;13.50;99.90;;;;;;5087233;28;20456;-66
2022/05/27 00:48:52;;;;;;;7.45;3.88;;;13.40;99.90;;;;;;5077315;28;20383;-65
2022/05/27 00:51:21;;;;;;;7.47;3.38;;;13.40;99.90;;;;;;5071120;28;20056;-66
2022/05/27 00:53:57;;;;;;;10.73;3.28;;;13.40;99.90;;;;;;5082727;28;20044;-64
2022/05/27 00:56:28;;;;;;;10.52;3.88;;;13.40;99.90;;;;;;5071828;28;20135;-65
2022/05/27 00:58:59;;;;;;;7.53;3.35;;;13.30;99.90;;;;;;5080136;28;20082;-66
2022/05/27 01:01:26;;;;;;;9.45;3.85;;;13.20;99.90;;;;;;5069428;28;20044;-65
2022/05/27 01:03:55;;;;;;;7.57;3.88;;;13.20;99.90;;;;;;5081776;28;20042;-65
2022/05/27 01:06:20;;;;;;;4.35;2.95;;;13.00;99.90;;;;;;5082079;28;20040;-65
2022/05/27 01:08:46;;;;;;;;;;;13.10;99.90;;;;;;5083616;28;20039;-64
2022/05/27 01:11:23;;;;;;;7.65;3.80;;;13.00;99.90;;;;;;5088022;28;20494;-65
2022/05/27 01:14:16;;;;;;;7.10;3.83;;;12.90;99.90;;;;;;5081777;28;20035;-65
2022/05/27 01:16:47;;;;;;;10.05;3.63;;;12.80;99.90;;;;;;5086337;28;20047;-65
2022/05/27 01:22:39;;;;;;;9.45;4.00;;;12.80;99.90;;;;;;5080914;28;20044;-65
2022/05/27 01:25:43;;;;;;;6.72;3.40;;;12.80;99.90;;;;;;5086884;28;20062;-66
2022/05/27 01:28:32;;;;;;;6.25;4.13;;;12.70;99.90;;;;;;5081782;28;20584;-65
2022/05/27 01:31:03;;;;;;;9.65;3.70;;;12.70;99.90;;;;;;5078448;28;20041;-66
2022/05/27 01:33:49;;;;;;;8.20;5.13;;;12.60;99.90;;;;;;5079599;28;20036;-65
2022/05/27 01:36:40;;;;;;;8.32;4.03;;;12.50;99.90;;;;;;5087602;28;20056;-65
2022/05/27 01:39:29;;;;;;;6.28;4.20;;;12.60;99.90;;;;;;5081308;28;20127;-64
2022/05/27 01:42:05;;;;;;;8.18;3.65;;;12.60;99.90;;;;;;5086628;28;20736;-65
2022/05/27 01:44:44;;;;;;;6.40;4.28;;;12.60;99.90;;;;;;5079628;28;20040;-65
2022/05/27 01:47:35;;;;;;;8.85;3.83;;;12.60;99.90;;;;;;5076358;28;20377;-65
2022/05/27 01:50:12;;;;;;;11.10;4.72;;;12.50;99.90;;;;;;5088643;28;20058;-65
2022/05/27 01:52:46;;;;;;;9.98;3.80;;;12.50;99.90;;;;;;5095876;28;20097;-65
2022/05/27 01:55:38;;;;;;;4.78;3.25;;;12.50;99.90;;;;;;5075348;28;20388;-65
2022/05/27 01:58:56;;;;;;;6.57;3.55;;;12.40;99.90;;;;;;5080703;28;20583;-65
2022/05/27 02:01:30;;;;;;;3.90;3.08;;;12.40;99.90;;;;;;5073875;28;20404;-64
2022/05/27 02:04:07;;;;;;;7.47;3.67;;;12.30;99.90;;;;;;5085673;28;20032;-65
2022/05/27 02:07:02;;;;;;;6.85;2.95;;;12.40;99.90;;;;;;5087995;28;20044;-66
2022/05/27 02:09:40;;;;;;;3.03;2.50;;;12.40;99.90;;;;;;5070799;28;20036;-65
2022/05/27 02:12:13;;;;;;;4.28;2.35;;;12.40;99.90;;;;;;5066366;28;20045;-65
2022/05/27 02:14:46;;;;;;;3.72;2.50;;;12.40;99.90;;;;;;5072347;28;20056;-64
2022/05/27 02:17:23;;;;;;;4.47;2.80;;;12.30;99.90;;;;;;5065829;28;20045;-64
2022/05/27 02:20:22;;;;;;;2.80;2.33;;;12.30;99.90;;;;;;5072198;28;20044;-64
2022/05/27 02:22:56;;;;;;;5.97;2.78;;;12.20;99.90;;;;;;5066637;28;20060;-65
2022/05/27 02:25:35;;;;;;;3.70;2.40;;;12.20;99.90;;;;;;5088956;28;20039;-64
2022/05/27 02:28:00;;;;;;;3.30;2.13;;;12.20;99.90;;;;;;5100127;28;20093;-63
2022/05/27 02:30:29;;;;;;;;;;;12.20;99.90;;;;;;5077978;28;20431;-65
2022/05/27 02:35:50;;;;;;;2.22;1.75;;;12.20;99.90;;;;;;5084911;28;20122;-66
2022/05/27 02:38:16;;;;;;;3.42;2.03;;;12.10;99.90;;;;;;5084212;28;20040;-66
2022/05/27 02:41:04;;;;;;;4.20;2.42;;;12.20;99.90;;;;;;5082351;28;20064;-65
2022/05/27 02:43:39;;;;;;;3.05;2.30;;;12.10;99.90;;;;;;5085923;28;20097;-65
2022/05/27 02:46:46;;;;;;;2.28;2.03;;;12.10;99.90;;;;;;5066604;28;20123;-65
2022/05/27 02:49:11;;;;;;;2.87;2.00;;;12.10;99.90;;;;;;5070357;28;20048;-65
2022/05/27 02:51:50;;;;;;;;;;;12.00;99.90;;;;;;5066281;28;20067;-65
2022/05/27 02:54:31;;;;;;;4.13;2.08;;;12.00;99.90;;;;;;5076786;28;19951;-66
2022/05/27 02:57:10;;;;;;;4.15;1.55;;;12.00;99.90;;;;;;5066027;28;20763;-65
2022/05/27 02:59:38;;;;;;;3.65;1.45;;;12.00;99.90;;;;;;5074343;28;20089;-66
2022/05/27 03:02:09;;;;;;;2.85;1.85;;;12.00;99.90;;;;;;5083871;28;20036;-66
2022/05/27 03:04:38;;;;;;;1.65;1.20;;;11.90;99.90;;;;;;5074042;28;20690;-66
2022/05/27 03:07:21;;;;;;;1.42;1.33;;;12.00;99.90;;;;;;5082287;28;20040;-64
2022/05/27 03:10:17;;;;;;;1.30;1.20;;;12.00;99.90;;;;;;5080065;28;20032;-64
2022/05/27 03:12:55;;;;;;;1.50;1.40;;;12.00;99.90;;;;;;5083891;28;20044;-65
2022/05/27 03:15:35;;;;;;;2.60;1.38;;;11.90;99.90;;;;;;5078761;28;20115;-65
2022/05/27 03:18:05;;;;;;;3.40;1.60;;;12.00;99.90;;;;;;5085595;28;20040;-66
2022/05/27 03:20:40;;;;;;;1.40;1.17;;;12.00;99.90;;;;;;5079624;28;20119;-65
2022/05/27 03:23:39;;;;;;;2.35;1.63;;;12.00;99.90;;;;;;5085543;28;20043;-65
2022/05/27 03:26:17;;;;;;;1.20;1.10;;;12.00;99.90;;;;;;5080277;28;20040;-66
2022/05/27 03:28:53;;;;;;;2.25;1.27;;;12.00;99.90;;;;;;5078687;28;20377;-64
2022/05/27 03:31:42;;;;;;;1.65;1.55;;;12.00;99.90;;;;;;5096201;28;20126;-65
2022/05/27 03:34:27;;;;;;;2.78;1.20;;;11.80;99.90;;;;;;5091760;28;20040;-64
2022/05/27 03:37:04;;;;;;;2.90;1.25;;;11.90;99.90;;;;;;5084208;28;20043;-65
2022/05/27 03:39:37;;;;;;;2.28;1.10;;;11.90;99.90;;;;;;5094637;28;20556;-65
2022/05/27 03:42:06;;;;;;;1.65;1.20;;;11.90;99.90;;;;;;5101413;28;20524;-63
2022/05/27 03:44:32;;;;;;;2.78;0.93;;;12.00;99.90;;;;;;5100553;28;20036;-64
2022/05/27 03:46:59;;;;;;;1.10;0.88;;;12.00;99.90;;;;;;5083015;28;20044;-64
2022/05/27 03:49:25;;;;;;;2.40;0.95;;;11.90;99.90;;;;;;5084839;28;20048;-65
2022/05/27 03:52:14;;;;;;;1.50;0.95;;;11.90;99.90;;;;;;5097431;28;20040;-65
2022/05/27 03:54:40;;;;;;;1.35;0.88;;;12.00;99.90;;;;;;5085473;28;20511;-66
2022/05/27 03:57:05;;;;;;;;;;;12.00;99.90;;;;;;5087943;28;20055;-64
2022/05/27 03:59:31;;;;;;;9.77;1.00;;;12.00;99.90;;;;;;5089459;28;19920;-64
2022/05/27 04:01:57;;;;;;;;;;;12.00;99.90;;;;;;5100769;28;20133;-65
2022/05/27 04:04:26;;;;;;;1.08;0.50;;;11.90;99.90;;;;;;5095558;27;19970;-64
2022/05/27 04:06:51;;;;;;;0.50;0.40;;;11.90;99.90;;;;;;5068490;28;20051;-63
2022/05/27 04:09:18;;;;;;;;;;;11.90;99.90;;;;;;5069644;28;20033;-65
2022/05/27 04:11:44;;;;;;;0.47;0.40;;;12.00;99.90;;;;;;5074265;28;19991;-65
2022/05/27 04:14:10;;;;;;;0.82;0.43;;;12.00;99.90;;;;;;5068086;28;20044;-65
2022/05/27 04:16:36;;;;;;;;;;;12.10;99.90;;;;;;5074571;28;20581;-64
2022/05/27 04:19:02;;;;;;;0.52;0.35;;;12.00;99.90;;;;;;5086478;28;19942;-65
2022/05/27 04:21:28;;;;;;;1.75;0.47;;;12.00;99.90;;;;;;5073100;28;20036;-65
2022/05/27 04:23:56;;;;;;;;;;;12.10;99.90;;;;;;5078898;28;20689;-65
2022/05/27 04:26:26;;;;;;;3.72;0.40;;;12.00;99.90;;;;;;5077996;28;19963;-65
2022/05/27 04:28:56;;;;;;;0.77;0.30;;;12.00;99.90;;;;;;5079603;28;20111;-64
2022/05/27 04:31:27;;;;;;;1.10;0.47;;;12.00;99.90;;;;;;5067189;28;20043;-65
2022/05/27 04:34:00;;;;;;;0.68;0.30;;;11.90;99.90;;;;;;5079373;28;20036;-65
2022/05/27 04:36:26;;;;;;;0.20;0.20;;;11.90;99.90;;;;;;5072857;28;20562;-65
2022/05/27 04:38:59;;;;;;;0.80;0.43;;;11.90;99.90;;;;;;5077182;28;20277;-65
2022/05/27 04:41:25;;;;;;;0.30;0.30;;;11.80;99.90;;;;;;5076487;28;20547;-63
2022/05/27 04:43:53;;;;;;;;;;;11.90;99.90;;;;;;5083966;28;20037;-63
2022/05/27 04:46:19;;;;;;;0.40;0.30;;;11.90;99.90;;;;;;5074350;28;19920;-62
2022/05/27 04:48:45;;;;;;;;;;;11.90;99.90;;;;;;5089328;28;20039;-63
2022/05/27 04:51:10;;;;;;;0.20;0.20;;;11.90;99.90;;;;;;5101238;28;19920;-62
2022/05/27 04:53:36;;;;;;;;;;;11.90;99.90;;;;;;5108611;28;20161;-64
2022/05/27 04:56:02;;;;;;;0.28;0.28;;;11.90;99.90;;;;;;5088560;28;19940;-65
2022/05/27 04:58:27;;;;;;;1.27;0.30;;;11.90;99.90;;;;;;5089195;28;20047;-67
2022/05/27 05:00:53;;;;;;;;;;;11.90;99.90;;;;;;5080513;28;20044;-63
2022/05/27 05:03:19;;;;;;;2.13;0.20;;;11.90;99.90;;;;;;5073657;28;19923;-64
2022/05/27 05:05:44;;;;;;;;;;;12.00;99.90;;;;;;5084325;28;20040;-61
2022/05/27 05:08:33;;;;;;;0.20;0.20;;;12.00;99.90;;;;;;5069844;28;19937;-63
2022/05/27 05:10:59;;;;;;;0.55;0.22;;;12.00;99.90;;;;;;5071612;28;20051;-63
2022/05/27 05:13:25;;;;;;;0.40;0.20;;;12.00;99.90;;;;;;5068757;28;20083;-61
2022/05/27 05:15:51;;;;;;;;;;;11.90;99.90;;;;;;5070353;28;20064;-64
2022/05/27 05:18:16;;;;;;;7.57;0.55;;;11.50;99.90;;;;;;5071426;28;20411;-63
2022/05/27 05:20:42;;;;;;;;;;;11.50;99.90;;;;;;5068275;28;20047;-63
2022/05/27 05:23:07;;;;;;;2.63;0.88;;;11.50;99.90;;;;;;5072396;28;20470;-62
2022/05/27 05:25:33;;;;;;;;;;;11.40;99.90;;;;;;5073146;28;20044;-65
2022/05/27 05:28:01;;;;;;;3.70;0.93;;;11.40;99.90;;;;;;5075610;28;19942;-62
2022/05/27 05:30:27;;;;;;;3.17;1.65;;;11.40;99.90;;;;;;5074168;28;20602;-63
2022/05/27 05:32:53;;;;;;;;;;;11.20;99.90;;;;;;5081928;28;20043;-64
2022/05/27 05:35:20;;;;;;;6.95;1.30;;;11.20;99.90;;;;;;5087040;28;20289;-63
2022/05/27 05:37:45;;;;;;;5.05;2.42;;;11.20;99.90;;;;;;5080950;28;20047;-63
2022/05/27 05:40:12;;;;;;;;;;;11.10;99.90;;;;;;5088027;28;20040;-65
2022/05/27 05:42:38;;;;;;;4.00;1.53;;;11.10;99.90;;;;;;5078975;28;19920;-64
2022/05/27 05:45:04;;;;;;;3.80;1.92;;;11.10;99.90;;;;;;5068263;28;20040;-62
2022/05/27 05:47:30;;;;;;;2.00;1.23;;;11.10;99.90;;;;;;5067615;28;20055;-62
2022/05/27 05:49:55;;;;;;;;;;;11.00;99.90;;;;;;5068518;28;20040;-62
2022/05/27 05:52:21;;;;;;;2.83;1.30;;;11.10;99.90;;;;;;5078062;28;19919;-62
2022/05/27 05:54:46;;;;;;;;;;;11.00;99.90;;;;;;5085246;28;20029;-63
2022/05/27 05:57:12;;;;;;;3.80;1.30;;;10.90;99.90;;;;;;5068265;28;19916;-62
2022/05/27 05:59:38;;;;;;;;;;;11.00;99.90;;;;;;5071015;28;20039;-62
2022/05/27 06:02:05;;;;;;;2.22;1.33;;;11.00;99.90;;;;;;5080381;28;19991;-63
2022/05/27 06:04:30;;;;;;;6.50;1.58;;;11.00;99.90;;;;;;5089733;28;20150;-62
2022/05/27 06:06:56;;;;;;;;;;;11.00;99.90;;;;;;5104211;28;20119;-62
2022/05/27 06:09:28;;;;;;;5.90;1.40;;;11.00;99.90;;;;;;5069311;28;19923;-62
2022/05/27 06:11:59;;;;;;;5.97;1.40;;;11.00;99.90;;;;;;5067619;28;20131;-62
2022/05/27 06:14:25;;;;;;;3.15;1.30;;;11.00;99.90;;;;;;5067705;28;20040;-62
2022/05/27 06:16:51;;;;;;;;;;;11.10;99.90;;;;;;5069541;28;20407;-62
2022/05/27 06:19:16;;;;;;;3.92;1.75;;;11.20;99.90;;;;;;5070978;28;19920;-62
2022/05/27 06:21:42;;;;;;;;;;;11.10;99.90;;;;;;5067933;28;20071;-62
2022/05/27 06:24:07;;;;;;;3.67;1.30;;;11.10;99.90;;;;;;5067401;28;20677;-62
2022/05/27 06:26:33;;;;;;;;;;;11.10;99.90;;;;;;5067804;28;20389;-62
2022/05/27 06:34:35;;;;;;;3.95;1.52;;;11.20;99.90;;;;;;5066853;28;20044;-62
2022/05/27 06:37:08;;;;;;;3.88;1.67;;;11.20;99.90;;;;;;5067290;28;20071;-62
2022/05/27 06:39:44;;;;;;;3.00;1.50;;;11.10;99.90;;;;;;5087281;28;20031;-63
2022/05/27 06:42:15;;;;;;;9.13;2.28;;;11.10;99.90;;;;;;5087576;28;20196;-62
2022/05/27 06:44:46;;;;;;;6.22;1.70;;;11.20;99.90;;;;;;5075602;28;20075;-62
2022/05/27 06:47:13;;;;;;;6.60;1.80;;;11.20;99.90;;;;;;5092047;28;20074;-63
2022/05/27 06:49:44;;;;;;;3.33;1.60;;;11.20;99.90;;;;;;5091290;28;20039;-63
2022/05/27 06:52:13;;;;;;;2.17;1.27;;;11.20;99.90;;;;;;5096525;28;20110;-63
2022/05/27 06:54:48;;;;;;;2.33;1.55;;;11.10;99.90;;;;;;5065300;28;20481;-63
2022/05/27 06:57:14;;;;;;;5.43;1.77;;;11.10;99.90;;;;;;5066066;28;20032;-63
2022/05/27 06:59:39;;;;;;;;;;;11.10;99.90;;;;;;5072723;28;20516;-63
2022/05/27 07:02:06;;;;;;;3.03;1.95;;;11.10;99.90;;;;;;5044709;28;19962;-64
2022/05/27 07:04:34;;;;;;;5.75;2.65;;;11.10;99.90;;;;;;5067751;28;20044;-63
2022/05/27 07:07:04;;;;;;;8.93;1.95;;;11.10;99.90;;;;;;5077117;28;20044;-63
2022/05/27 07:09:37;;;;;;;5.18;1.90;;;11.10;99.90;;;;;;5082686;28;20044;-63
2022/05/27 07:12:09;;;;;;;3.30;1.80;;;11.10;99.90;;;;;;5097063;28;20032;-62
2022/05/27 07:14:38;;;;;;;5.10;2.03;;;11.10;99.90;;;;;;5070606;28;20124;-63
2022/05/27 07:17:07;;;;;;;4.05;2.10;;;11.10;99.90;;;;;;5069268;28;20039;-62
2022/05/27 07:19:34;;;;;;;3.40;2.00;;;11.10;99.90;;;;;;5072957;28;20751;-63
2022/05/27 07:22:04;;;;;;;3.90;1.80;;;11.10;99.90;;;;;;5066727;28;20040;-64
2022/05/27 07:24:37;;;;;;;6.88;2.17;;;11.00;99.90;;;;;;5073426;28;20508;-63
2022/05/27 07:27:14;;;;;;;7.55;2.53;;;11.10;99.90;;;;;;5067181;28;20052;-63
2022/05/27 07:29:39;;;;;;;6.40;2.88;;;11.10;99.90;;;;;;5076468;28;20037;-65
2022/05/27 07:32:10;;;;;;;7.82;2.67;;;11.10;99.90;;;;;;5060341;28;20586;-64
2022/05/27 07:34:36;;;;;;;4.75;2.25;;;11.10;99.90;;;;;;5078952;28;20116;-64
2022/05/27 07:37:02;;;;;;;;;;;11.00;99.90;;;;;;5091033;28;20470;-62
2022/05/27 07:39:36;;;;;;;5.85;2.70;;;11.10;99.90;;;;;;5077831;28;19920;-62
2022/05/27 07:42:11;;;;;;;3.80;2.05;;;11.10;99.90;;;;;;5070393;28;20056;-62
2022/05/27 07:44:44;;;;;;;6.18;2.75;;;11.10;99.90;;;;;;5076613;28;20123;-63
2022/05/27 07:47:09;;;;;;;4.57;2.20;;;11.20;99.90;;;;;;5070115;28;20048;-63
2022/05/27 07:49:46;;;;;;;8.13;2.33;;;11.10;99.90;;;;;;5084053;28;20686;-63
2022/05/27 07:52:19;;;;;;;6.00;1.60;;;11.00;99.90;;;;;;5090758;28;20492;-63
2022/05/27 07:54:45;;;;;;;4.55;1.92;;;11.00;99.90;;;;;;5084540;28;20152;-63
2022/05/27 07:57:26;;;;;;;;;;;10.90;99.90;;;;;;5086785;28;20552;-63
2022/05/27 08:00:06;;;;;;;4.82;2.30;;;11.00;99.90;;;;;;5083105;28;19924;-63
2022/05/27 08:02:34;;;;;;;3.00;2.03;;;11.00;99.90;;;;;;5077814;28;20047;-63
2022/05/27 08:05:02;;;;;;;5.72;2.33;;;11.00;99.90;;;;;;5077440;28;20040;-63
2022/05/27 08:07:33;;;;;;;4.40;2.30;;;11.00;99.90;;;;;;5090317;28;20051;-62
2022/05/27 08:10:02;;;;;;;3.58;1.95;;;11.10;99.90;;;;;;5083437;28;20059;-62
2022/05/27 08:12:30;;;;;;;5.18;2.25;;;11.10;99.90;;;;;;5070152;28;20032;-63
2022/05/27 08:14:56;;;;;;;3.22;1.90;;;11.20;99.90;;;;;;5070247;28;20037;-62
2022/05/27 08:17:25;;;;;;;;;;;11.20;99.90;;;;;;5070947;28;20790;-63
2022/05/27 08:19:53;;;;;;;3.17;1.88;;;11.30;99.90;;;;;;5074284;28;20021;-63
2022/05/27 08:22:25;;;;;;;3.92;2.72;;;11.40;99.90;;;;;;5090164;28;20177;-63
2022/05/27 08:24:50;;;;;;;2.97;2.05;;;11.40;99.90;;;;;;5083251;28;20044;-63
2022/05/27 08:27:21;;;;;;;;;;;11.50;99.90;;;;;;5090460;28;20059;-63
2022/05/27 08:29:47;;;;;;;4.93;2.83;;;11.60;99.90;;;;;;5085552;28;19916;-63
2022/05/27 08:32:20;;;;;;;;;;;11.60;99.90;;;;;;5062515;28;20123;-63
2022/05/27 08:40:55;;;;;;;5.78;3.47;;;11.50;99.90;;;;;;5073641;28;20044;-63
2022/05/27 08:43:47;;;;;;;4.88;4.10;;;11.50;99.90;;;;;;5069000;28;20047;-63
2022/05/27 08:46:41;;;;;;;8.55;4.57;;;11.50;99.90;;;;;;5087620;28;20420;-63
2022/05/27 08:49:19;;;;;;;7.68;3.88;;;11.40;99.90;;;;;;5069999;28;20134;-63
2022/05/27 08:52:20;;;;;;;13.82;4.95;;;11.50;99.90;;;;;;5072649;28;20124;-63
2022/05/27 08:54:56;;;;;;;7.20;4.25;;;11.40;99.90;;;;;;5051997;28;20078;-63
2022/05/27 09:00:34;;;;;;;8.88;4.40;;;11.60;99.90;;;;;;5087880;28;20035;-64
2022/05/27 09:03:08;;;;;;;8.57;4.72;;;11.70;99.90;;;;;;5043556;28;20634;-64
2022/05/27 09:05:53;;;;;;;10.82;4.65;;;11.80;99.90;;;;;;5068846;28;20036;-63
2022/05/27 09:08:30;;;;;;;7.80;4.63;;;11.90;99.90;;;;;;5065584;28;20052;-64
2022/05/27 09:11:19;;;;;;;6.13;3.95;;;12.10;99.90;;;;;;5064811;28;20127;-64
2022/05/27 09:14:09;;;;;;;7.75;3.90;;;12.10;99.90;;;;;;5077563;28;20488;-65
2022/05/27 09:16:50;;;;;;;7.63;4.50;;;12.30;99.90;;;;;;5065546;28;20614;-64
2022/05/27 09:19:25;;;;;;;11.77;5.35;;;12.50;99.90;;;;;;5068574;28;20048;-64
2022/05/27 09:22:10;;;;;;;11.48;5.60;;;12.50;99.90;;;;;;5068143;28;20040;-65
2022/05/27 09:25:02;;;;;;;9.70;4.85;;;12.40;99.90;;;;;;5069111;28;20115;-63
2022/05/27 09:27:47;;;;;;;8.75;4.65;;;12.50;99.90;;;;;;5041309;28;20053;-65
2022/05/27 09:30:17;;;;;;;9.95;4.82;;;12.50;99.90;;;;;;5067901;28;20094;-66
2022/05/27 09:32:52;;;;;;;8.95;4.10;;;12.60;99.90;;;;;;5084542;28;20043;-63
2022/05/27 09:35:35;;;;;;;9.97;4.70;;;12.60;99.90;;;;;;5084422;28;20617;-65
2022/05/27 09:38:04;;;;;;;9.55;5.03;;;12.50;99.90;;;;;;5086785;28;20071;-64
2022/05/27 09:40:53;;;;;;;11.75;4.57;;;12.50;99.90;;;;;;5083083;28;20114;-63
2022/05/27 09:43:34;;;;;;;6.70;4.82;;;12.50;99.90;;;;;;5067786;28;20036;-65
2022/05/27 09:46:05;;;;;;;14.75;6.20;;;12.60;99.90;;;;;;5075793;28;20036;-64
2022/05/27 09:48:31;;;;;;;9.38;4.43;;;12.80;99.90;;;;;;5081627;28;20040;-64
2022/05/27 09:51:00;;;;;;;;;;;12.80;99.90;;;;;;5094065;28;20028;-66
2022/05/27 09:53:36;;;;;;;10.23;5.00;;;12.90;99.90;;;;;;5076891;28;20719;-64
2022/05/27 09:56:08;;;;;;;10.82;5.30;;;12.90;99.90;;;;;;5079946;28;20071;-65
2022/05/27 09:58:41;;;;;;;11.55;5.53;;;13.20;99.90;;;;;;5066757;28;20100;-65
2022/05/27 10:01:30;;;;;;;11.00;5.38;;;13.20;99.90;;;;;;5080485;28;20039;-64
2022/05/27 10:04:00;;;;;;;8.38;4.85;;;13.20;99.90;;;;;;5082149;28;20046;-66
2022/05/27 10:06:29;;;;;;;12.77;4.95;;;13.30;99.90;;;;;;5078576;28;20056;-64
2022/05/27 10:08:58;;;;;;;8.43;4.82;;;13.40;99.90;;;;;;5087675;28;20508;-66
2022/05/27 10:11:28;;;;;;;12.95;4.88;;;13.50;99.90;;;;;;5087381;28;20044;-65
2022/05/27 10:14:06;;;;;;;11.48;5.65;;;13.40;99.90;;;;;;5072353;28;20157;-66
2022/05/27 10:16:34;;;;;;;9.07;5.85;;;13.30;99.90;;;;;;5086327;28;20396;-64
2022/05/27 10:19:23;;;;;;;13.00;5.53;;;13.10;99.90;;;;;;5082846;28;20093;-64
2022/05/27 10:21:59;;;;;;;13.95;6.07;;;13.00;99.90;;;;;;5069340;28;20047;-64
2022/05/27 10:24:26;;;;;;;10.13;4.90;;;12.90;99.90;;;;;;5096866;28;20055;-63
2022/05/27 10:27:01;;;;;;;12.30;6.50;;;12.70;99.90;;;;;;5086917;28;20056;-64
2022/05/27 10:29:27;;;;;;;12.82;5.32;;;12.60;99.90;;;;;;5067981;28;20049;-63
2022/05/27 10:31:54;;;;;;;;;;;12.60;99.90;;;;;;5078247;28;20637;-64
2022/05/27 10:34:45;;;;;;;9.85;4.88;;;12.60;99.90;;;;;;5086554;28;19959;-63
2022/05/27 10:37:18;;;;;;;15.80;5.75;;;12.70;99.90;;;;;;5082462;28;20043;-64
2022/05/27 10:39:54;;;;;;;13.77;5.78;;;12.90;99.90;;;;;;5088397;28;20442;-63
2022/05/27 10:42:39;;;;;;;7.28;4.70;;;12.90;99.90;;;;;;5086549;28;20035;-64
2022/05/27 10:45:28;;;;;;;9.82;5.07;;;12.90;99.90;;;;;;5070976;28;20035;-63
2022/05/27 10:48:30;;;;;;;8.73;5.03;;;12.80;99.90;;;;;;5060273;28;20037;-64
2022/05/27 10:51:02;;;;;;;13.60;4.75;;;13.10;99.90;;;;;;5068951;28;20081;-66
2022/05/27 10:53:36;;;;;;;17.10;6.07;;;13.40;99.90;;;;;;5072072;28;20082;-62
2022/05/27 10:56:15;;;;;;;9.82;5.13;;;13.60;99.90;;;;;;5069064;28;20035;-63
2022/05/27 11:02:09;;;;;;;10.90;5.40;;;14.10;99.90;;;;;;5085368;28;20840;-64
2022/05/27 11:05:05;;;;;;;7.65;4.07;;;14.20;99.90;;;;;;5081470;28;20388;-63
2022/05/27 11:08:18;;;;;;;9.18;4.10;;;14.60;99.90;;;;;;5076989;28;20045;-64
2022/05/27 11:11:13;;;;;;;13.98;5.15;;;14.50;99.90;;;;;;5060599;28;20068;-64
2022/05/27 11:17:25;;;;;;;11.20;4.05;;;14.70;99.90;;;;;;5068583;28;20500;-64
2022/05/27 11:20:07;;;;;;;13.65;3.60;;;14.90;99.90;;;;;;5028253;28;20076;-64
2022/05/27 11:23:11;;;;;;;12.73;3.92;;;14.80;99.90;;;;;;5073614;28;20032;-64
2022/05/27 11:25:58;;;;;;;10.23;3.60;;;14.80;99.90;;;;;;5086116;28;20044;-64
2022/05/27 11:28:48;;;;;;;10.77;3.50;;;15.20;99.90;;;;;;5079646;28;20492;-65
2022/05/27 11:31:42;;;;;;;14.77;4.22;;;15.30;99.90;;;;;;5073858;28;20036;-64
2022/05/27 11:34:23;;;;;;;11.38;3.88;;;15.10;99.90;;;;;;5084843;28;20036;-63
2022/05/27 11:36:54;;;;;;;8.63;3.28;;;14.80;99.90;;;;;;5086508;28;20040;-64
2022/05/27 11:39:23;;;;;;;7.53;3.60;;;14.70;99.90;;;;;;5071427;28;20543;-64
2022/05/27 11:42:03;;;;;;;9.40;3.05;;;14.60;99.90;;;;;;5065701;28;20032;-63
2022/05/27 11:44:40;;;;;;;7.78;3.00;;;14.60;99.90;;;;;;5080599;28;20036;-65
2022/05/27 11:47:46;;;;;;;12.82;4.03;;;14.60;99.90;;;;;;5085456;28;20036;-64
2022/05/27 11:50:26;;;;;;;11.82;3.05;;;14.30;99.90;;;;;;5085444;28;20032;-64
2022/05/27 11:53:14;;;;;;;14.57;3.42;;;14.40;99.90;;;;;;5080271;28;20032;-65
2022/05/27 11:55:58;;;;;;;7.05;2.88;;;14.20;99.90;;;;;;5076587;28;20036;-64
2022/05/27 11:58:49;;;;;;;8.07;2.78;;;14.20;99.90;;;;;;5082579;28;20052;-64
2022/05/27 12:01:35;;;;;;;13.25;3.53;;;14.40;99.90;;;;;;5070790;28;20505;-64
2022/05/27 12:04:11;;;;;;;15.63;3.90;;;14.80;99.90;;;;;;5073661;28;20036;-64
2022/05/27 12:06:55;;;;;;;15.32;3.17;;;15.20;99.90;;;;;;5098117;28;20302;-64
2022/05/27 12:09:53;;;;;;;10.80;2.88;;;15.60;99.90;;;;;;5075208;28;20111;-64
2022/05/27 12:12:25;;;;;;;8.25;2.90;;;15.70;99.90;;;;;;5056395;28;20081;-64
2022/05/27 12:15:06;;;;;;;12.30;2.80;;;15.80;99.90;;;;;;5074956;28;20504;-64
2022/05/27 12:17:45;;;;;;;12.68;2.90;;;15.90;99.90;;;;;;5068752;28;20087;-65
2022/05/27 12:20:18;;;;;;;7.60;2.53;;;16.10;99.90;;;;;;5083329;28;20042;-63
2022/05/27 12:22:47;;;;;;;11.05;3.05;;;16.20;99.90;;;;;;5091215;28;20079;-65
2022/05/27 12:25:19;;;;;;;8.10;2.38;;;15.90;99.90;;;;;;5079644;28;20551;-63
2022/05/27 12:27:46;;;;;;;9.20;3.42;;;15.90;99.60;;;;;;5069532;28;20055;-64
2022/05/27 12:30:16;;;;;;;7.43;2.42;;;15.80;99.90;;;;;;5088747;28;20582;-63
2022/05/27 12:32:44;;;;;;;8.20;2.75;;;15.70;99.40;;;;;;5079607;28;20132;-64
2022/05/27 12:35:32;;;;;;;7.78;2.45;;;15.60;99.90;;;;;;5075945;28;20082;-64
2022/05/27 12:38:03;;;;;;;19.95;3.25;;;15.40;99.60;;;;;;5069656;28;20048;-63
2022/05/27 12:40:29;;;;;;;9.35;2.58;;;15.40;99.90;;;;;;5062165;23;20740;-63
2022/05/27 12:42:56;;;;;;;;;;;15.20;99.90;;;;;;5037222;28;20045;-62
2022/05/27 12:45:45;;;;;;;13.88;2.88;;;15.30;98.40;;;;;;5043018;28;20308;-64
2022/05/27 12:48:31;;;;;;;15.98;2.85;;;15.60;99.70;;;;;;5048052;28;20409;-64
2022/05/27 12:51:00;;;;;;;7.03;2.78;;;15.90;98.70;;;;;;5047006;28;20075;-63
2022/05/27 12:53:35;;;;;;;9.40;2.20;;;15.80;97.50;;;;;;5038643;28;20045;-63
2022/05/27 13:02:26;;;;;;;8.88;2.40;;;16.50;94.40;;;;;;5046145;28;20086;-64
2022/05/27 13:05:02;;;;;;;;;;;16.60;95.10;;;;;;5047685;28;20566;-63
2022/05/27 13:07:27;;;;;;;9.88;2.38;;;16.90;93.70;;;;;;5047983;28;19971;-65
2022/05/27 13:09:54;;;;;;;;;;;16.70;93.50;;;;;;5047236;28;20072;-64
2022/05/27 13:13:02;;;;;;;6.63;2.20;;;16.70;94.00;;;;;;5045927;28;20376;-65
2022/05/27 13:16:10;;;;;;;7.45;2.65;;;16.50;94.00;;;;;;4949798;28;20034;-63
2022/05/27 13:18:38;;;;;;;;;;;16.40;93.90;;;;;;4904428;29;20126;-64
2022/05/27 13:21:31;;;;;;;8.55;2.40;;;16.40;95.40;;;;;;4963736;28;19925;-67
2022/05/27 13:24:21;;;;;;;8.65;2.15;;;16.50;94.40;;;;;;5026201;28;20057;-63
2022/05/27 13:27:08;;;;;;;12.20;2.65;;;16.30;93.80;;;;;;5047115;28;20047;-63
2022/05/27 13:29:42;;;;;;;8.43;1.98;;;16.70;94.30;;;;;;5046014;28;20057;-63
2022/05/27 13:32:11;;;;;;;11.18;2.50;;;16.90;93.50;;;;;;5045607;28;20036;-64
2022/05/27 13:34:51;;;;;;;11.73;2.83;;;16.90;91.90;;;;;;5046159;28;20564;-64
2022/05/27 13:37:45;;;;;;;14.27;2.80;;;17.10;92.30;;;;;;5046919;28;20091;-64
2022/05/27 13:40:16;;;;;;;10.13;1.95;;;16.80;93.30;;;;;;5046404;28;20632;-64
2022/05/27 13:42:51;;;;;;;10.80;2.28;;;16.90;92.20;;;;;;5046031;28;20102;-66
2022/05/27 13:45:36;;;;;;;6.78;2.35;;;16.60;92.40;;;;;;5047246;28;20037;-67
2022/05/27 13:48:23;;;;;;;9.02;2.25;;;16.30;91.70;;;;;;5046479;28;20045;-63
2022/05/27 13:51:02;;;;;;;13.75;2.53;;;16.70;96.10;;;;;;5045840;28;20509;-64
2022/05/27 13:53:28;;;;;;;11.48;2.58;;;16.70;92.70;;;;;;5047047;28;20060;-64
2022/05/27 13:56:04;;;;;;;10.23;2.65;;;16.40;92.90;;;;;;5037928;28;20143;-63
2022/05/27 13:58:31;;;;;;;6.88;2.08;;;16.30;91.20;;;;;;5026679;28;20045;-64
2022/05/27 14:01:03;;;;;;;7.60;2.13;;;16.30;91.50;;;;;;5036824;28;20040;-63
2022/05/27 14:03:37;;;;;;;9.48;3.30;;;16.40;91.10;;;;;;5045129;28;20038;-63
2022/05/27 14:06:06;;;;;;;13.82;2.80;;;16.20;92.30;;;;;;5045589;28;20045;-64
2022/05/27 14:08:47;;;;;;;14.45;2.60;;;16.30;92.10;;;;;;5046048;28;20045;-63